sensor_id;sensor_type;location;lat;lon;timestamp;pressure;altitude;pressure_sealevel;temperature;humidity
61010;BME280;46897;55.340;86.082;2023-04-25T00:00:10;99902.34;;;-0.73;64.03
61010;BME280;46897;55.340;86.082;2023-04-25T00:02:58;99897.09;;;-0.67;63.88
61010;BME280;46897;55.340;86.082;2023-04-25T00:05:29;99803.75;;;-1.27;63.59
61010;BME280;46897;55.340;86.082;2023-04-25T00:07:59;99819.31;;;-1.21;63.37
61010;BME280;46897;55.340;86.082;2023-04-25T00:10:31;99870.31;;;-0.92;63.42
61010;BME280;46897;55.340;86.082;2023-04-25T00:13:18;99909.22;;;-0.63;62.76
61010;BME280;46897;55.340;86.082;2023-04-25T00:15:49;99791.66;;;-1.50;62.92
61010;BME280;46897;55.340;86.082;2023-04-25T00:18:19;99828.00;;;-1.42;62.57
61010;BME280;46897;55.340;86.082;2023-04-25T00:20:48;99740.69;;;-1.94;62.00
61010;BME280;46897;55.340;86.082;2023-04-25T00:23:35;99969.81;;;-0.47;61.15
61010;BME280;46897;55.340;86.082;2023-04-25T00:26:07;100001.88;;;-0.44;60.15
61010;BME280;46897;55.340;86.082;2023-04-25T00:28:37;99932.69;;;-0.95;59.53
61010;BME280;46897;55.340;86.082;2023-04-25T00:31:25;99978.50;;;-0.45;58.76
61010;BME280;46897;55.340;86.082;2023-04-25T00:33:54;100059.13;;;-0.48;58.71
61010;BME280;46897;55.340;86.082;2023-04-25T00:36:23;99885.13;;;-1.34;58.30
61010;BME280;46897;55.340;86.082;2023-04-25T00:38:53;99988.91;;;-0.51;58.14
61010;BME280;46897;55.340;86.082;2023-04-25T00:41:25;99997.59;;;-0.54;58.36
61010;BME280;46897;55.340;86.082;2023-04-25T00:43:54;100033.09;;;-0.54;58.08
61010;BME280;46897;55.340;86.082;2023-04-25T00:46:24;99815.91;;;-1.72;58.25
61010;BME280;46897;55.340;86.082;2023-04-25T00:49:10;100043.50;;;-0.54;57.45
61010;BME280;46897;55.340;86.082;2023-04-25T00:51:45;99865.22;;;-1.49;57.68
61010;BME280;46897;55.340;86.082;2023-04-25T00:54:14;100009.78;;;-1.02;57.26
61010;BME280;46897;55.340;86.082;2023-04-25T00:56:45;99942.25;;;-1.31;57.86
61010;BME280;46897;55.340;86.082;2023-04-25T00:59:32;100052.16;;;-0.52;57.79
61010;BME280;46897;55.340;86.082;2023-04-25T01:02:19;100067.75;;;-0.43;57.49
61010;BME280;46897;55.340;86.082;2023-04-25T01:05:08;100048.69;;;-0.42;58.05
61010;BME280;46897;55.340;86.082;2023-04-25T01:07:37;99869.56;;;-1.65;57.49
61010;BME280;46897;55.340;86.082;2023-04-25T01:13:14;100082.47;;;-0.25;57.25
61010;BME280;46897;55.340;86.082;2023-04-25T01:16:01;100055.63;;;-0.58;57.21
61010;BME280;46897;55.340;86.082;2023-04-25T01:18:31;100097.22;;;-0.26;57.34
61010;BME280;46897;55.340;86.082;2023-04-25T01:21:09;99817.63;;;-1.98;57.04
61010;BME280;46897;55.340;86.082;2023-04-25T01:23:39;100093.72;;;-0.09;56.59
61010;BME280;46897;55.340;86.082;2023-04-25T01:26:10;99963.84;;;-0.77;56.77
61010;BME280;46897;55.340;86.082;2023-04-25T01:28:40;100066.81;;;-0.10;56.90
61010;BME280;46897;55.340;86.082;2023-04-25T01:31:09;100086.69;;;0.11;56.46
61010;BME280;46897;55.340;86.082;2023-04-25T01:33:39;99998.38;;;-0.35;55.91
61010;BME280;46897;55.340;86.082;2023-04-25T01:36:10;100008.78;;;-0.30;55.70
61010;BME280;46897;55.340;86.082;2023-04-25T01:38:40;100096.19;;;0.23;55.65
61010;BME280;46897;55.340;86.082;2023-04-25T01:41:09;100099.66;;;0.28;55.44
61010;BME280;46897;55.340;86.082;2023-04-25T01:43:39;99979.31;;;-0.37;54.92
61010;BME280;46897;55.340;86.082;2023-04-25T01:46:08;100055.41;;;0.27;54.70
61010;BME280;46897;55.340;86.082;2023-04-25T01:48:40;100009.56;;;-0.10;54.49
61010;BME280;46897;55.340;86.082;2023-04-25T01:51:11;100128.22;;;0.54;54.40
61010;BME280;46897;55.340;86.082;2023-04-25T01:53:43;100136.97;;;0.35;53.58
61010;BME280;46897;55.340;86.082;2023-04-25T01:56:15;100155.88;;;0.80;53.25
61010;BME280;46897;55.340;86.082;2023-04-25T01:58:47;99994.88;;;-0.22;53.58
61010;BME280;46897;55.340;86.082;2023-04-25T02:01:20;100150.56;;;0.95;53.39
61010;BME280;46897;55.340;86.082;2023-04-25T02:03:49;100135.78;;;0.96;53.82
61010;BME280;46897;55.340;86.082;2023-04-25T02:06:24;100109.75;;;0.93;53.46
61010;BME280;46897;55.340;86.082;2023-04-25T02:08:56;100018.91;;;0.39;53.94
61010;BME280;46897;55.340;86.082;2023-04-25T02:11:25;100018.22;;;-0.05;53.48
61010;BME280;46897;55.340;86.082;2023-04-25T02:13:54;100067.47;;;0.46;52.98
61010;BME280;46897;55.340;86.082;2023-04-25T02:16:23;100234.75;;;1.16;53.11
61010;BME280;46897;55.340;86.082;2023-04-25T02:21:49;100140.41;;;0.43;51.87
61010;BME280;46897;55.340;86.082;2023-04-25T02:24:18;100111.81;;;0.25;52.13
61010;BME280;46897;55.340;86.082;2023-04-25T02:26:47;100127.41;;;0.31;52.25
61010;BME280;46897;55.340;86.082;2023-04-25T02:29:35;100121.34;;;0.29;51.19
61010;BME280;46897;55.340;86.082;2023-04-25T02:32:05;100001.03;;;-0.47;51.52
61010;BME280;46897;55.340;86.082;2023-04-25T02:34:34;100229.72;;;0.77;51.34
61010;BME280;46897;55.340;86.082;2023-04-25T02:37:05;100076.38;;;-0.20;51.62
61010;BME280;46897;55.340;86.082;2023-04-25T02:42:28;100235.78;;;0.73;52.01
61010;BME280;46897;55.340;86.082;2023-04-25T02:47:49;100151.78;;;0.08;51.91
61010;BME280;46897;55.340;86.082;2023-04-25T02:50:18;100235.78;;;0.76;51.80
61010;BME280;46897;55.340;86.082;2023-04-25T02:52:52;100280.91;;;0.95;51.46
61010;BME280;46897;55.340;86.082;2023-04-25T02:55:21;100285.25;;;0.90;51.27
61010;BME280;46897;55.340;86.082;2023-04-25T02:57:54;100241.94;;;0.52;51.23
61010;BME280;46897;55.340;86.082;2023-04-25T03:00:24;100284.44;;;0.67;51.20
61010;BME280;46897;55.340;86.082;2023-04-25T03:02:56;100277.53;;;0.66;51.34
61010;BME280;46897;55.340;86.082;2023-04-25T03:05:25;100303.53;;;0.76;51.65
61010;BME280;46897;55.340;86.082;2023-04-25T03:07:56;100308.72;;;0.81;51.17
61010;BME280;46897;55.340;86.082;2023-04-25T03:10:39;100276.63;;;0.64;50.68
61010;BME280;46897;55.340;86.082;2023-04-25T03:13:08;100329.59;;;0.75;50.55
61010;BME280;46897;55.340;86.082;2023-04-25T03:15:40;100301.78;;;0.80;49.84
61010;BME280;46897;55.340;86.082;2023-04-25T03:18:11;100287.03;;;0.73;49.65
61010;BME280;46897;55.340;86.082;2023-04-25T03:20:58;100306.06;;;1.00;50.06
61010;BME280;46897;55.340;86.082;2023-04-25T03:23:31;100296.44;;;1.14;49.57
61010;BME280;46897;55.340;86.082;2023-04-25T03:26:00;100290.38;;;1.16;49.67
61010;BME280;46897;55.340;86.082;2023-04-25T03:28:46;100312.03;;;1.29;50.00
61010;BME280;46897;55.340;86.082;2023-04-25T03:34:07;100332.97;;;1.06;48.87
61010;BME280;46897;55.340;86.082;2023-04-25T03:36:38;100318.22;;;1.04;49.42
61010;BME280;46897;55.340;86.082;2023-04-25T03:39:14;100329.50;;;1.09;48.72
61010;BME280;46897;55.340;86.082;2023-04-25T03:41:44;100349.47;;;1.11;48.12
61010;BME280;46897;55.340;86.082;2023-04-25T03:44:13;100315.63;;;0.96;48.05
61010;BME280;46897;55.340;86.082;2023-04-25T03:47:03;100330.38;;;1.12;48.67
61010;BME280;46897;55.340;86.082;2023-04-25T03:49:36;100283.56;;;0.82;49.02
61010;BME280;46897;55.340;86.082;2023-04-25T03:52:06;100326.84;;;1.26;49.18
61010;BME280;46897;55.340;86.082;2023-04-25T03:54:37;100349.34;;;1.41;49.18
61010;BME280;46897;55.340;86.082;2023-04-25T03:57:10;100400.59;;;1.52;49.31
61010;BME280;46897;55.340;86.082;2023-04-25T03:59:41;100324.16;;;1.36;48.30
61010;BME280;46897;55.340;86.082;2023-04-25T04:02:11;100324.19;;;1.33;48.57
61010;BME280;46897;55.340;86.082;2023-04-25T04:04:41;100363.91;;;1.88;48.86
61010;BME280;46897;55.340;86.082;2023-04-25T04:07:11;100270.34;;;1.26;48.20
61010;BME280;46897;55.340;86.082;2023-04-25T04:12:30;100389.00;;;2.12;47.59
61010;BME280;46897;55.340;86.082;2023-04-25T04:14:59;100261.56;;;1.40;46.62
61010;BME280;46897;55.340;86.082;2023-04-25T04:17:28;100407.28;;;2.10;46.46
61010;BME280;46897;55.340;86.082;2023-04-25T04:19:58;100393.31;;;2.19;47.08
61010;BME280;46897;55.340;86.082;2023-04-25T04:22:27;100394.03;;;2.36;46.83
61010;BME280;46897;55.340;86.082;2023-04-25T04:25:16;100391.31;;;2.55;46.63
61010;BME280;46897;55.340;86.082;2023-04-25T04:30:33;100394.78;;;2.55;45.53
61010;BME280;46897;55.340;86.082;2023-04-25T04:33:22;100403.41;;;2.61;45.90
61010;BME280;46897;55.340;86.082;2023-04-25T04:38:39;100395.63;;;2.54;45.43
61010;BME280;46897;55.340;86.082;2023-04-25T04:41:11;100428.69;;;2.59;45.72
61010;BME280;46897;55.340;86.082;2023-04-25T04:43:40;100266.59;;;1.70;45.32
61010;BME280;46897;55.340;86.082;2023-04-25T04:51:45;100421.78;;;3.46;44.44
61010;BME280;46897;55.340;86.082;2023-04-25T04:54:33;100469.78;;;3.42;43.77
61010;BME280;46897;55.340;86.082;2023-04-25T04:57:06;100480.28;;;3.39;44.38
61010;BME280;46897;55.340;86.082;2023-04-25T04:59:35;100461.81;;;3.51;44.25
61010;BME280;46897;55.340;86.082;2023-04-25T05:02:23;100438.25;;;3.52;44.26
61010;BME280;46897;55.340;86.082;2023-04-25T05:04:52;100422.47;;;3.60;44.20
61010;BME280;46897;55.340;86.082;2023-04-25T05:07:40;100455.50;;;3.69;44.25
61010;BME280;46897;55.340;86.082;2023-04-25T05:10:11;100480.88;;;3.65;43.70
61010;BME280;46897;55.340;86.082;2023-04-25T05:12:42;100413.88;;;3.50;43.96
61010;BME280;46897;55.340;86.082;2023-04-25T05:15:11;100431.91;;;3.73;44.33
61010;BME280;46897;55.340;86.082;2023-04-25T05:17:42;100461.72;;;3.63;43.74
61010;BME280;46897;55.340;86.082;2023-04-25T05:20:11;100381.88;;;3.25;44.06
61010;BME280;46897;55.340;86.082;2023-04-25T05:22:41;100467.69;;;3.73;44.33
61010;BME280;46897;55.340;86.082;2023-04-25T05:25:10;100512.16;;;3.78;44.05
61010;BME280;46897;55.340;86.082;2023-04-25T05:27:41;100446.88;;;3.61;43.42
61010;BME280;46897;55.340;86.082;2023-04-25T05:30:10;100462.41;;;3.78;44.11
61010;BME280;46897;55.340;86.082;2023-04-25T05:32:41;100460.69;;;3.75;44.22
61010;BME280;46897;55.340;86.082;2023-04-25T05:35:28;100463.06;;;3.95;43.85
61010;BME280;46897;55.340;86.082;2023-04-25T05:41:20;100507.31;;;4.17;43.60
61010;BME280;46897;55.340;86.082;2023-04-25T05:43:50;100494.31;;;4.09;43.39
61010;BME280;46897;55.340;86.082;2023-04-25T05:46:23;100483.91;;;4.01;43.10
61010;BME280;46897;55.340;86.082;2023-04-25T05:49:28;100513.75;;;3.91;42.11
61010;BME280;46897;55.340;86.082;2023-04-25T05:52:16;100504.97;;;3.93;42.17
61010;BME280;46897;55.340;86.082;2023-04-25T05:55:02;100489.06;;;4.07;42.79
61010;BME280;46897;55.340;86.082;2023-04-25T05:57:32;100488.84;;;4.26;42.59
61010;BME280;46897;55.340;86.082;2023-04-25T06:00:03;100457.59;;;4.13;42.56
61010;BME280;46897;55.340;86.082;2023-04-25T06:02:55;100520.91;;;4.46;42.30
61010;BME280;46897;55.340;86.082;2023-04-25T06:05:24;100513.09;;;4.40;42.04
61010;BME280;46897;55.340;86.082;2023-04-25T06:07:54;100512.88;;;4.56;42.71
61010;BME280;46897;55.340;86.082;2023-04-25T06:10:26;100427.63;;;4.30;42.55
61010;BME280;46897;55.340;86.082;2023-04-25T06:12:55;100433.78;;;4.29;41.52
61010;BME280;46897;55.340;86.082;2023-04-25T06:15:26;100415.13;;;4.49;41.30
61010;BME280;46897;55.340;86.082;2023-04-25T06:18:14;100509.25;;;5.19;41.38
61010;BME280;46897;55.340;86.082;2023-04-25T06:20:43;100490.75;;;5.28;41.35
61010;BME280;46897;55.340;86.082;2023-04-25T06:23:12;100500.09;;;5.43;41.23
61010;BME280;46897;55.340;86.082;2023-04-25T06:25:59;100507.75;;;5.55;40.88
61010;BME280;46897;55.340;86.082;2023-04-25T06:28:29;100486.69;;;5.58;42.17
61010;BME280;46897;55.340;86.082;2023-04-25T06:31:00;100407.38;;;4.94;41.38
61010;BME280;46897;55.340;86.082;2023-04-25T06:33:43;100507.75;;;5.55;40.66
61010;BME280;46897;55.340;86.082;2023-04-25T06:36:12;100442.47;;;4.87;39.73
61010;BME280;46897;55.340;86.082;2023-04-25T06:38:41;100493.09;;;4.90;40.07
61010;BME280;46897;55.340;86.082;2023-04-25T06:43:57;100482.94;;;5.23;41.97
61010;BME280;46897;55.340;86.082;2023-04-25T06:46:45;100512.09;;;5.56;40.92
61010;BME280;46897;55.340;86.082;2023-04-25T06:49:16;100489.59;;;5.43;40.40
61010;BME280;46897;55.340;86.082;2023-04-25T06:51:45;100483.84;;;5.22;40.51
61010;BME280;46897;55.340;86.082;2023-04-25T06:54:15;100511.66;;;5.31;40.64
61010;BME280;46897;55.340;86.082;2023-04-25T06:56:45;100494.19;;;5.31;40.93
61010;BME280;46897;55.340;86.082;2023-04-25T06:59:14;100487.19;;;5.30;40.85
61010;BME280;46897;55.340;86.082;2023-04-25T07:01:45;100477.47;;;5.36;41.30
61010;BME280;46897;55.340;86.082;2023-04-25T07:04:18;100519.78;;;5.67;40.82
61010;BME280;46897;55.340;86.082;2023-04-25T07:09:38;100516.59;;;5.96;40.91
61010;BME280;46897;55.340;86.082;2023-04-25T07:12:07;100469.00;;;5.68;40.57
61010;BME280;46897;55.340;86.082;2023-04-25T07:15:00;100507.22;;;5.81;40.84
61010;BME280;46897;55.340;86.082;2023-04-25T07:17:34;100507.78;;;5.54;41.00
61010;BME280;46897;55.340;86.082;2023-04-25T07:23:26;100537.53;;;5.01;43.06
61010;BME280;46897;55.340;86.082;2023-04-25T07:25:55;100563.72;;;4.42;44.61
61010;BME280;46897;55.340;86.082;2023-04-25T07:28:24;100595.50;;;4.18;45.23
61010;BME280;46897;55.340;86.082;2023-04-25T07:30:54;100584.59;;;3.79;45.37
61010;BME280;46897;55.340;86.082;2023-04-25T07:33:25;100622.28;;;3.61;47.76
61010;BME280;46897;55.340;86.082;2023-04-25T07:38:59;100634.84;;;3.14;49.78
61010;BME280;46897;55.340;86.082;2023-04-25T07:41:29;100589.78;;;2.75;51.54
61010;BME280;46897;55.340;86.082;2023-04-25T07:43:58;100602.72;;;2.93;51.67
61010;BME280;46897;55.340;86.082;2023-04-25T07:46:27;100595.69;;;3.03;51.12
61010;BME280;46897;55.340;86.082;2023-04-25T07:49:17;100602.38;;;3.43;51.42
61010;BME280;46897;55.340;86.082;2023-04-25T07:51:46;100556.81;;;3.64;51.05
61010;BME280;46897;55.340;86.082;2023-04-25T07:54:17;100555.56;;;3.96;50.33
61010;BME280;46897;55.340;86.082;2023-04-25T07:56:47;100569.97;;;4.35;48.89
61010;BME280;46897;55.340;86.082;2023-04-25T07:59:40;100580.88;;;4.68;48.46
61010;BME280;46897;55.340;86.082;2023-04-25T08:02:33;100609.63;;;4.76;48.27
61010;BME280;46897;55.340;86.082;2023-04-25T08:05:14;100576.44;;;4.73;47.21
61010;BME280;46897;55.340;86.082;2023-04-25T08:08:04;100626.63;;;5.10;46.14
61010;BME280;46897;55.340;86.082;2023-04-25T08:10:37;100633.91;;;4.88;45.65
61010;BME280;46897;55.340;86.082;2023-04-25T08:13:06;100618.84;;;4.38;46.67
61010;BME280;46897;55.340;86.082;2023-04-25T08:15:37;100647.31;;;3.91;48.40
61010;BME280;46897;55.340;86.082;2023-04-25T08:18:07;100622.38;;;3.50;50.70
61010;BME280;46897;55.340;86.082;2023-04-25T08:20:46;100653.81;;;3.44;52.02
61010;BME280;46897;55.340;86.082;2023-04-25T08:23:38;100619.00;;;3.37;53.09
61010;BME280;46897;55.340;86.082;2023-04-25T08:26:07;100622.38;;;3.48;52.22
61010;BME280;46897;55.340;86.082;2023-04-25T08:28:37;100609.94;;;3.73;52.34
61010;BME280;46897;55.340;86.082;2023-04-25T08:31:25;100604.41;;;4.01;51.54
61010;BME280;46897;55.340;86.082;2023-04-25T08:34:00;100567.56;;;4.15;51.75
61010;BME280;46897;55.340;86.082;2023-04-25T08:36:39;100616.56;;;4.78;51.59
61010;BME280;46897;55.340;86.082;2023-04-25T08:39:26;100599.53;;;5.10;50.39
61010;BME280;46897;55.340;86.082;2023-04-25T08:42:02;100602.78;;;5.24;49.91
61010;BME280;46897;55.340;86.082;2023-04-25T08:44:38;100613.28;;;5.24;49.63
61010;BME280;46897;55.340;86.082;2023-04-25T08:47:13;100625.53;;;5.25;49.28
61010;BME280;46897;55.340;86.082;2023-04-25T08:49:45;100619.00;;;5.48;49.64
61010;BME280;46897;55.340;86.082;2023-04-25T08:55:09;100623.44;;;6.42;48.74
61010;BME280;46897;55.340;86.082;2023-04-25T08:57:42;100631.03;;;6.97;47.74
61010;BME280;46897;55.340;86.082;2023-04-25T09:00:13;100622.25;;;6.98;46.64
61010;BME280;46897;55.340;86.082;2023-04-25T09:02:43;100591.44;;;6.64;46.61
61010;BME280;46897;55.340;86.082;2023-04-25T09:05:13;100623.47;;;6.83;46.76
61010;BME280;46897;55.340;86.082;2023-04-25T09:10:54;100601.78;;;8.75;45.60
61010;BME280;46897;55.340;86.082;2023-04-25T09:16:15;100621.56;;;9.98;44.12
61010;BME280;46897;55.340;86.082;2023-04-25T09:21:34;100615.19;;;11.21;44.27
61010;BME280;46897;55.340;86.082;2023-04-25T09:24:32;100620.81;;;11.36;42.81
61010;BME280;46897;55.340;86.082;2023-04-25T09:27:04;100607.50;;;11.15;42.81
61010;BME280;46897;55.340;86.082;2023-04-25T09:29:35;100612.56;;;10.03;42.37
61010;BME280;46897;55.340;86.082;2023-04-25T09:35:04;100636.22;;;7.75;43.57
61010;BME280;46897;55.340;86.082;2023-04-25T09:37:37;100640.06;;;6.86;44.23
61010;BME280;46897;55.340;86.082;2023-04-25T09:43:19;100666.56;;;5.29;46.84
61010;BME280;46897;55.340;86.082;2023-04-25T09:45:50;100662.81;;;4.85;47.38
61010;BME280;46897;55.340;86.082;2023-04-25T09:48:30;100663.38;;;5.07;48.48
61010;BME280;46897;55.340;86.082;2023-04-25T09:59:39;100649.97;;;5.82;47.79
61010;BME280;46897;55.340;86.082;2023-04-25T10:02:09;100653.50;;;5.79;47.62
61010;BME280;46897;55.340;86.082;2023-04-25T10:04:41;100612.81;;;5.52;48.00
61010;BME280;46897;55.340;86.082;2023-04-25T10:07:11;100647.72;;;5.59;48.37
61010;BME280;46897;55.340;86.082;2023-04-25T10:09:41;100642.84;;;5.36;48.14
61010;BME280;46897;55.340;86.082;2023-04-25T10:12:14;100632.88;;;5.00;48.44
61010;BME280;46897;55.340;86.082;2023-04-25T10:14:46;100641.88;;;4.82;48.44
61010;BME280;46897;55.340;86.082;2023-04-25T10:17:16;100636.09;;;4.57;48.39
61010;BME280;46897;55.340;86.082;2023-04-25T10:19:46;100661.63;;;4.41;49.01
61010;BME280;46897;55.340;86.082;2023-04-25T10:22:20;100683.53;;;4.32;49.03
61010;BME280;46897;55.340;86.082;2023-04-25T10:24:52;100697.69;;;4.18;49.48
61010;BME280;46897;55.340;86.082;2023-04-25T10:27:24;100717.13;;;3.92;50.22
61010;BME280;46897;55.340;86.082;2023-04-25T10:30:00;100711.28;;;3.62;50.79
61010;BME280;46897;55.340;86.082;2023-04-25T10:35:25;100733.50;;;2.92;54.35
61010;BME280;46897;55.340;86.082;2023-04-25T10:38:13;100742.31;;;2.65;55.86
61010;BME280;46897;55.340;86.082;2023-04-25T10:41:02;100715.38;;;2.47;56.26
61010;BME280;46897;55.340;86.082;2023-04-25T10:43:41;100724.09;;;2.40;57.39
61010;BME280;46897;55.340;86.082;2023-04-25T10:49:03;100712.53;;;2.93;57.01
61010;BME280;46897;55.340;86.082;2023-04-25T10:51:33;100699.75;;;3.86;55.06
61010;BME280;46897;55.340;86.082;2023-04-25T10:54:24;100693.91;;;5.13;53.52
61010;BME280;46897;55.340;86.082;2023-04-25T10:56:55;100675.69;;;5.63;52.80
61010;BME280;46897;55.340;86.082;2023-04-25T10:59:31;100684.41;;;5.63;52.23
61010;BME280;46897;55.340;86.082;2023-04-25T11:02:14;100615.66;;;5.40;52.67
61010;BME280;46897;55.340;86.082;2023-04-25T11:04:44;100668.72;;;5.60;53.42
61010;BME280;46897;55.340;86.082;2023-04-25T11:07:22;100678.88;;;5.24;52.13
61010;BME280;46897;55.340;86.082;2023-04-25T11:09:54;100685.47;;;4.92;52.28
61010;BME280;46897;55.340;86.082;2023-04-25T11:12:24;100687.66;;;4.58;52.55
61010;BME280;46897;55.340;86.082;2023-04-25T11:15:03;100695.84;;;4.27;52.98
61010;BME280;46897;55.340;86.082;2023-04-25T11:17:51;100679.53;;;3.99;53.52
61010;BME280;46897;55.340;86.082;2023-04-25T11:20:21;100695.22;;;4.02;53.25
61010;BME280;46897;55.340;86.082;2023-04-25T11:22:51;100650.91;;;3.79;54.68
61010;BME280;46897;55.340;86.082;2023-04-25T11:25:20;100674.22;;;4.05;53.75
61010;BME280;46897;55.340;86.082;2023-04-25T11:27:52;100663.28;;;4.48;53.74
61010;BME280;46897;55.340;86.082;2023-04-25T11:30:47;100656.22;;;5.19;53.90
61010;BME280;46897;55.340;86.082;2023-04-25T11:33:16;100643.22;;;6.17;53.19
61010;BME280;46897;55.340;86.082;2023-04-25T11:35:46;100638.78;;;7.03;52.22
61010;BME280;46897;55.340;86.082;2023-04-25T11:38:15;100643.63;;;7.59;51.19
61010;BME280;46897;55.340;86.082;2023-04-25T11:40:49;100636.50;;;7.62;50.40
61010;BME280;46897;55.340;86.082;2023-04-25T11:43:20;100611.22;;;7.19;50.43
61010;BME280;46897;55.340;86.082;2023-04-25T11:45:51;100617.19;;;6.88;50.94
61010;BME280;46897;55.340;86.082;2023-04-25T11:48:21;100627.28;;;6.68;51.75
61010;BME280;46897;55.340;86.082;2023-04-25T11:50:53;100614.59;;;6.46;51.99
61010;BME280;46897;55.340;86.082;2023-04-25T11:58:59;100613.50;;;6.13;52.04
61010;BME280;46897;55.340;86.082;2023-04-25T12:01:32;100600.81;;;5.87;52.04
61010;BME280;46897;55.340;86.082;2023-04-25T12:04:12;100605.28;;;5.83;51.42
61010;BME280;46897;55.340;86.082;2023-04-25T12:06:43;100613.34;;;5.74;51.15
61010;BME280;46897;55.340;86.082;2023-04-25T12:12:02;100603.25;;;5.48;51.00
61010;BME280;46897;55.340;86.082;2023-04-25T12:14:32;100603.47;;;5.37;50.97
61010;BME280;46897;55.340;86.082;2023-04-25T12:17:04;100592.44;;;5.13;50.71
61010;BME280;46897;55.340;86.082;2023-04-25T12:19:37;100615.28;;;5.07;50.57
61010;BME280;46897;55.340;86.082;2023-04-25T12:25:07;100615.72;;;4.78;51.01
61010;BME280;46897;55.340;86.082;2023-04-25T12:27:36;100603.72;;;4.60;50.99
61010;BME280;46897;55.340;86.082;2023-04-25T12:32:58;100637.44;;;4.86;50.86
61010;BME280;46897;55.340;86.082;2023-04-25T12:35:28;100617.81;;;5.13;50.47
61010;BME280;46897;55.340;86.082;2023-04-25T12:37:58;100639.47;;;5.82;48.53
61010;BME280;46897;55.340;86.082;2023-04-25T12:40:44;100624.75;;;6.65;47.90
61010;BME280;46897;55.340;86.082;2023-04-25T12:43:13;100626.84;;;6.89;46.19
61010;BME280;46897;55.340;86.082;2023-04-25T12:48:31;100589.88;;;6.12;47.01
61010;BME280;46897;55.340;86.082;2023-04-25T12:51:00;100620.63;;;6.06;46.73
61010;BME280;46897;55.340;86.082;2023-04-25T12:53:29;100615.97;;;5.74;46.67
61010;BME280;46897;55.340;86.082;2023-04-25T12:56:34;100627.13;;;5.34;47.29
61010;BME280;46897;55.340;86.082;2023-04-25T12:59:03;100569.59;;;4.61;47.21
61010;BME280;46897;55.340;86.082;2023-04-25T13:01:35;100609.19;;;4.41;47.69
61010;BME280;46897;55.340;86.082;2023-04-25T13:04:28;100612.16;;;4.12;48.01
61010;BME280;46897;55.340;86.082;2023-04-25T13:06:58;100596.72;;;3.84;48.54
61010;BME280;46897;55.340;86.082;2023-04-25T13:09:27;100597.84;;;3.60;48.73
61010;BME280;46897;55.340;86.082;2023-04-25T13:12:32;100601.47;;;3.47;49.24
61010;BME280;46897;55.340;86.082;2023-04-25T13:15:01;100602.44;;;3.37;49.10
61010;BME280;46897;55.340;86.082;2023-04-25T13:17:30;100599.88;;;3.27;49.61
61010;BME280;46897;55.340;86.082;2023-04-25T13:20:05;100591.28;;;3.13;49.42
61010;BME280;46897;55.340;86.082;2023-04-25T13:25:25;100596.56;;;3.01;49.65
61010;BME280;46897;55.340;86.082;2023-04-25T13:27:54;100595.78;;;2.94;49.78
61010;BME280;46897;55.340;86.082;2023-04-25T13:30:41;100588.03;;;2.80;49.87
61010;BME280;46897;55.340;86.082;2023-04-25T13:33:10;100556.78;;;2.52;49.99
61010;BME280;46897;55.340;86.082;2023-04-25T13:35:41;100599.41;;;2.67;49.90
61010;BME280;46897;55.340;86.082;2023-04-25T13:38:11;100594.25;;;2.58;50.00
61010;BME280;46897;55.340;86.082;2023-04-25T13:40:40;100571.69;;;2.36;50.07
61010;BME280;46897;55.340;86.082;2023-04-25T13:43:09;100583.84;;;2.41;49.99
61010;BME280;46897;55.340;86.082;2023-04-25T13:45:39;100574.34;;;2.32;50.28
61010;BME280;46897;55.340;86.082;2023-04-25T13:48:08;100568.28;;;2.16;50.49
61010;BME280;46897;55.340;86.082;2023-04-25T13:50:42;100574.41;;;2.13;50.39
61010;BME280;46897;55.340;86.082;2023-04-25T13:53:11;100524.06;;;1.76;50.28
61010;BME280;46897;55.340;86.082;2023-04-25T13:59:26;100582.31;;;1.80;50.63
61010;BME280;46897;55.340;86.082;2023-04-25T14:01:58;100578.00;;;1.69;50.64
61010;BME280;46897;55.340;86.082;2023-04-25T14:04:27;100578.88;;;1.57;50.73
61010;BME280;46897;55.340;86.082;2023-04-25T14:06:58;100585.84;;;1.52;50.75
61010;BME280;46897;55.340;86.082;2023-04-25T14:09:29;100583.25;;;1.45;50.74
61010;BME280;46897;55.340;86.082;2023-04-25T14:12:16;100587.59;;;1.43;50.98
61010;BME280;46897;55.340;86.082;2023-04-25T14:14:46;100594.56;;;1.37;50.94
61010;BME280;46897;55.340;86.082;2023-04-25T14:20:21;100595.44;;;1.26;50.99
61010;BME280;46897;55.340;86.082;2023-04-25T14:22:54;100574.56;;;1.12;51.11
61010;BME280;46897;55.340;86.082;2023-04-25T14:25:32;100585.84;;;1.14;51.24
61010;BME280;46897;55.340;86.082;2023-04-25T14:28:01;100557.19;;;0.89;51.16
61010;BME280;46897;55.340;86.082;2023-04-25T14:30:31;100588.47;;;1.00;51.23
61010;BME280;46897;55.340;86.082;2023-04-25T14:33:00;100586.72;;;0.94;51.27
61010;BME280;46897;55.340;86.082;2023-04-25T14:35:29;100581.50;;;0.84;51.43
61010;BME280;46897;55.340;86.082;2023-04-25T14:38:01;100576.25;;;0.79;51.44
61010;BME280;46897;55.340;86.082;2023-04-25T14:43:20;100587.56;;;0.83;51.32
61010;BME280;46897;55.340;86.082;2023-04-25T14:45:49;100584.09;;;0.84;51.39
61010;BME280;46897;55.340;86.082;2023-04-25T14:48:18;100564.09;;;0.72;51.58
61010;BME280;46897;55.340;86.082;2023-04-25T14:50:51;100557.16;;;0.68;51.46
61010;BME280;46897;55.340;86.082;2023-04-25T14:53:22;100579.72;;;0.75;51.59
61010;BME280;46897;55.340;86.082;2023-04-25T14:55:51;100558.88;;;0.63;51.57
61010;BME280;46897;55.340;86.082;2023-04-25T14:58:24;100574.53;;;0.75;51.36
61010;BME280;46897;55.340;86.082;2023-04-25T15:00:53;100572.78;;;0.77;51.87
61010;BME280;46897;55.340;86.082;2023-04-25T15:03:23;100561.50;;;0.75;52.16
61010;BME280;46897;55.340;86.082;2023-04-25T15:05:53;100578.88;;;0.87;51.97
61010;BME280;46897;55.340;86.082;2023-04-25T15:08:26;100580.63;;;0.92;51.84